sensor_id;sensor_type;location;lat;lon;timestamp;temperature;humidity
10911;DHT22;5508;49.150;11.030;2023-02-13T00:02:42;-2.30;99.90
10911;DHT22;5508;49.150;11.030;2023-02-13T00:05:43;-2.30;99.90
10911;DHT22;5508;49.150;11.030;2023-02-13T00:08:44;-2.30;99.90
10911;DHT22;5508;49.150;11.030;2023-02-13T00:11:44;-2.20;99.90
10911;DHT22;5508;49.150;11.030;2023-02-13T00:14:45;-2.20;99.90
10911;DHT22;5508;49.150;11.030;2023-02-13T00:17:45;-2.30;99.90
10911;DHT22;5508;49.150;11.030;2023-02-13T00:20:59;-2.30;99.90
10911;DHT22;5508;49.150;11.030;2023-02-13T00:24:00;-2.20;99.90
10911;DHT22;5508;49.150;11.030;2023-02-13T00:27:00;-2.20;99.90
10911;DHT22;5508;49.150;11.030;2023-02-13T00:30:03;-2.30;99.90
10911;DHT22;5508;49.150;11.030;2023-02-13T00:33:04;-2.20;99.90
10911;DHT22;5508;49.150;11.030;2023-02-13T00:36:10;-2.40;99.90
10911;DHT22;5508;49.150;11.030;2023-02-13T00:39:11;-2.50;99.90
10911;DHT22;5508;49.150;11.030;2023-02-13T00:42:12;-2.50;99.90
10911;DHT22;5508;49.150;11.030;2023-02-13T00:45:12;-2.60;99.90
10911;DHT22;5508;49.150;11.030;2023-02-13T00:48:13;-2.60;99.90
10911;DHT22;5508;49.150;11.030;2023-02-13T00:51:13;-2.60;99.90
10911;DHT22;5508;49.150;11.030;2023-02-13T00:54:14;-2.60;99.90
10911;DHT22;5508;49.150;11.030;2023-02-13T00:57:15;-2.60;99.90
10911;DHT22;5508;49.150;11.030;2023-02-13T01:00:15;-2.60;99.90
10911;DHT22;5508;49.150;11.030;2023-02-13T01:03:17;-2.60;99.90
10911;DHT22;5508;49.150;11.030;2023-02-13T01:06:17;-2.70;99.90
10911;DHT22;5508;49.150;11.030;2023-02-13T01:09:18;-2.70;99.90
10911;DHT22;5508;49.150;11.030;2023-02-13T01:12:19;-2.70;99.90
10911;DHT22;5508;49.150;11.030;2023-02-13T01:15:22;-2.80;99.90
10911;DHT22;5508;49.150;11.030;2023-02-13T01:18:23;-2.90;99.90
10911;DHT22;5508;49.150;11.030;2023-02-13T01:21:24;-3.00;99.90
10911;DHT22;5508;49.150;11.030;2023-02-13T01:24:24;-3.00;99.90
10911;DHT22;5508;49.150;11.030;2023-02-13T01:27:29;-3.00;99.90
10911;DHT22;5508;49.150;11.030;2023-02-13T01:30:30;-3.00;99.90
10911;DHT22;5508;49.150;11.030;2023-02-13T01:33:30;-2.80;99.90
10911;DHT22;5508;49.150;11.030;2023-02-13T01:36:31;-2.90;99.90
10911;DHT22;5508;49.150;11.030;2023-02-13T01:39:32;-3.00;99.90
10911;DHT22;5508;49.150;11.030;2023-02-13T01:42:33;-3.00;99.90
10911;DHT22;5508;49.150;11.030;2023-02-13T01:45:34;-3.10;99.90
10911;DHT22;5508;49.150;11.030;2023-02-13T01:48:35;-3.20;99.90
10911;DHT22;5508;49.150;11.030;2023-02-13T01:51:36;-3.20;99.90
10911;DHT22;5508;49.150;11.030;2023-02-13T01:54:37;-3.30;99.90
10911;DHT22;5508;49.150;11.030;2023-02-13T01:57:39;-3.40;99.90
10911;DHT22;5508;49.150;11.030;2023-02-13T02:00:42;-3.30;99.90
10911;DHT22;5508;49.150;11.030;2023-02-13T02:03:48;-3.30;99.90
10911;DHT22;5508;49.150;11.030;2023-02-13T02:06:55;-3.30;99.90
10911;DHT22;5508;49.150;11.030;2023-02-13T02:10:04;-3.40;99.90
10911;DHT22;5508;49.150;11.030;2023-02-13T02:13:08;-3.40;99.90
10911;DHT22;5508;49.150;11.030;2023-02-13T02:16:09;-3.50;99.90
10911;DHT22;5508;49.150;11.030;2023-02-13T02:20:12;-3.60;99.90
10911;DHT22;5508;49.150;11.030;2023-02-13T02:23:09;-3.70;99.90
10911;DHT22;5508;49.150;11.030;2023-02-13T02:33:41;-3.80;99.90
10911;DHT22;5508;49.150;11.030;2023-02-13T02:47:09;-3.90;99.90
10911;DHT22;5508;49.150;11.030;2023-02-13T02:50:42;-3.90;99.90
10911;DHT22;5508;49.150;11.030;2023-02-13T02:53:50;-4.00;99.90
10911;DHT22;5508;49.150;11.030;2023-02-13T02:56:55;-3.90;99.90
10911;DHT22;5508;49.150;11.030;2023-02-13T02:59:58;-4.00;99.90
10911;DHT22;5508;49.150;11.030;2023-02-13T03:03:20;-4.00;99.90
10911;DHT22;5508;49.150;11.030;2023-02-13T03:09:50;-4.10;99.90
10911;DHT22;5508;49.150;11.030;2023-02-13T03:16:34;-4.10;99.90
10911;DHT22;5508;49.150;11.030;2023-02-13T03:30:39;-4.10;99.90
10911;DHT22;5508;49.150;11.030;2023-02-13T03:36:58;-4.30;99.90
10911;DHT22;5508;49.150;11.030;2023-02-13T03:40:43;-4.30;99.90
10911;DHT22;5508;49.150;11.030;2023-02-13T03:47:21;-4.40;99.90
10911;DHT22;5508;49.150;11.030;2023-02-13T03:50:23;-4.40;99.90
10911;DHT22;5508;49.150;11.030;2023-02-13T03:53:28;-4.40;99.90
10911;DHT22;5508;49.150;11.030;2023-02-13T03:56:32;-4.40;99.90
10911;DHT22;5508;49.150;11.030;2023-02-13T03:59:53;-4.40;99.90
10911;DHT22;5508;49.150;11.030;2023-02-13T04:03:12;-4.40;99.90
10911;DHT22;5508;49.150;11.030;2023-02-13T04:06:18;-4.50;99.90
10911;DHT22;5508;49.150;11.030;2023-02-13T04:09:20;-4.40;99.90
10911;DHT22;5508;49.150;11.030;2023-02-13T04:12:52;-4.50;99.90
10911;DHT22;5508;49.150;11.030;2023-02-13T04:16:05;-4.50;99.90
10911;DHT22;5508;49.150;11.030;2023-02-13T04:19:08;-4.60;99.90
10911;DHT22;5508;49.150;11.030;2023-02-13T04:22:12;-4.70;99.90
10911;DHT22;5508;49.150;11.030;2023-02-13T04:25:16;-4.70;99.90
10911;DHT22;5508;49.150;11.030;2023-02-13T04:28:17;-4.70;99.90
10911;DHT22;5508;49.150;11.030;2023-02-13T04:31:17;-4.70;99.90
10911;DHT22;5508;49.150;11.030;2023-02-13T04:34:18;-4.80;99.90
10911;DHT22;5508;49.150;11.030;2023-02-13T04:37:18;-4.80;99.90
10911;DHT22;5508;49.150;11.030;2023-02-13T04:40:19;-4.80;99.90
10911;DHT22;5508;49.150;11.030;2023-02-13T04:43:20;-4.80;99.90
10911;DHT22;5508;49.150;11.030;2023-02-13T04:46:20;-4.80;99.90
10911;DHT22;5508;49.150;11.030;2023-02-13T04:49:21;-4.80;99.90
10911;DHT22;5508;49.150;11.030;2023-02-13T04:52:21;-4.90;99.90
10911;DHT22;5508;49.150;11.030;2023-02-13T04:55:26;-5.00;99.90
10911;DHT22;5508;49.150;11.030;2023-02-13T04:58:27;-4.90;99.90
10911;DHT22;5508;49.150;11.030;2023-02-13T05:01:28;-4.80;99.90
10911;DHT22;5508;49.150;11.030;2023-02-13T05:04:29;-5.00;99.90
10911;DHT22;5508;49.150;11.030;2023-02-13T05:07:29;-5.00;99.90
10911;DHT22;5508;49.150;11.030;2023-02-13T05:10:30;-5.00;99.90
10911;DHT22;5508;49.150;11.030;2023-02-13T05:13:31;-4.80;99.90
10911;DHT22;5508;49.150;11.030;2023-02-13T05:16:32;-4.80;99.90
10911;DHT22;5508;49.150;11.030;2023-02-13T05:19:32;-4.90;99.90
10911;DHT22;5508;49.150;11.030;2023-02-13T05:22:33;-5.00;99.90
10911;DHT22;5508;49.150;11.030;2023-02-13T05:25:52;-5.10;99.90
10911;DHT22;5508;49.150;11.030;2023-02-13T05:28:53;-5.10;99.90
10911;DHT22;5508;49.150;11.030;2023-02-13T05:32:12;-5.10;99.90
10911;DHT22;5508;49.150;11.030;2023-02-13T05:35:13;-5.10;99.90
10911;DHT22;5508;49.150;11.030;2023-02-13T05:38:13;-5.10;99.90
10911;DHT22;5508;49.150;11.030;2023-02-13T05:41:14;-5.00;99.90
10911;DHT22;5508;49.150;11.030;2023-02-13T05:44:15;-5.00;99.90
10911;DHT22;5508;49.150;11.030;2023-02-13T05:47:15;-4.80;99.90
10911;DHT22;5508;49.150;11.030;2023-02-13T05:50:16;-4.70;99.90
10911;DHT22;5508;49.150;11.030;2023-02-13T05:53:17;-4.60;99.90
10911;DHT22;5508;49.150;11.030;2023-02-13T05:56:17;-4.50;99.90
10911;DHT22;5508;49.150;11.030;2023-02-13T05:59:18;-4.50;99.90
10911;DHT22;5508;49.150;11.030;2023-02-13T06:02:18;-4.40;99.90
10911;DHT22;5508;49.150;11.030;2023-02-13T06:05:19;-4.30;99.90
10911;DHT22;5508;49.150;11.030;2023-02-13T06:08:21;-4.40;99.90
10911;DHT22;5508;49.150;11.030;2023-02-13T06:11:21;-4.50;99.90
10911;DHT22;5508;49.150;11.030;2023-02-13T06:14:22;-4.40;99.90
10911;DHT22;5508;49.150;11.030;2023-02-13T06:17:22;-4.40;99.90
10911;DHT22;5508;49.150;11.030;2023-02-13T06:20:23;-4.40;99.90
10911;DHT22;5508;49.150;11.030;2023-02-13T06:23:24;-4.40;99.90
10911;DHT22;5508;49.150;11.030;2023-02-13T06:26:24;-4.50;99.90
10911;DHT22;5508;49.150;11.030;2023-02-13T06:29:25;-4.60;99.90
10911;DHT22;5508;49.150;11.030;2023-02-13T06:32:25;-4.80;99.90
10911;DHT22;5508;49.150;11.030;2023-02-13T06:35:26;-4.70;99.90
10911;DHT22;5508;49.150;11.030;2023-02-13T06:38:27;-4.70;99.90
10911;DHT22;5508;49.150;11.030;2023-02-13T06:41:28;-4.60;99.90
10911;DHT22;5508;49.150;11.030;2023-02-13T06:44:28;-4.50;99.90
10911;DHT22;5508;49.150;11.030;2023-02-13T06:47:29;-4.40;99.90
10911;DHT22;5508;49.150;11.030;2023-02-13T06:50:29;-4.40;99.90
10911;DHT22;5508;49.150;11.030;2023-02-13T06:53:30;-4.20;99.90
10911;DHT22;5508;49.150;11.030;2023-02-13T06:56:31;-4.00;99.90
10911;DHT22;5508;49.150;11.030;2023-02-13T06:59:32;-4.00;99.90
10911;DHT22;5508;49.150;11.030;2023-02-13T07:02:32;-3.80;99.90
10911;DHT22;5508;49.150;11.030;2023-02-13T07:05:33;-3.70;99.90
10911;DHT22;5508;49.150;11.030;2023-02-13T07:08:33;-3.80;99.90
10911;DHT22;5508;49.150;11.030;2023-02-13T07:11:34;-3.60;99.90
10911;DHT22;5508;49.150;11.030;2023-02-13T07:14:36;-3.60;99.90
10911;DHT22;5508;49.150;11.030;2023-02-13T07:17:37;-3.50;99.90
10911;DHT22;5508;49.150;11.030;2023-02-13T07:20:37;-3.40;99.90
10911;DHT22;5508;49.150;11.030;2023-02-13T07:23:38;-3.30;99.90
10911;DHT22;5508;49.150;11.030;2023-02-13T07:26:39;-3.30;99.90
10911;DHT22;5508;49.150;11.030;2023-02-13T07:29:39;-3.20;99.90
10911;DHT22;5508;49.150;11.030;2023-02-13T07:32:40;-3.20;99.90
10911;DHT22;5508;49.150;11.030;2023-02-13T07:35:48;-3.20;99.90
10911;DHT22;5508;49.150;11.030;2023-02-13T07:38:49;-3.00;99.90
10911;DHT22;5508;49.150;11.030;2023-02-13T07:41:50;-2.90;99.90
10911;DHT22;5508;49.150;11.030;2023-02-13T07:44:51;-2.90;99.90
10911;DHT22;5508;49.150;11.030;2023-02-13T07:47:54;-2.80;99.90
10911;DHT22;5508;49.150;11.030;2023-02-13T07:50:59;-2.60;99.90
10911;DHT22;5508;49.150;11.030;2023-02-13T07:54:01;-2.50;99.90
10911;DHT22;5508;49.150;11.030;2023-02-13T07:57:03;-2.40;99.90
10911;DHT22;5508;49.150;11.030;2023-02-13T08:00:04;-2.40;99.90
10911;DHT22;5508;49.150;11.030;2023-02-13T08:03:05;-2.40;99.90
10911;DHT22;5508;49.150;11.030;2023-02-13T08:06:06;-2.20;99.90
10911;DHT22;5508;49.150;11.030;2023-02-13T08:09:18;-2.00;99.90
10911;DHT22;5508;49.150;11.030;2023-02-13T08:12:37;-1.80;99.90
10911;DHT22;5508;49.150;11.030;2023-02-13T08:15:38;-1.80;99.90
10911;DHT22;5508;49.150;11.030;2023-02-13T08:18:39;-1.80;99.90
10911;DHT22;5508;49.150;11.030;2023-02-13T08:21:39;-1.80;99.90
10911;DHT22;5508;49.150;11.030;2023-02-13T08:24:40;-1.70;99.90
10911;DHT22;5508;49.150;11.030;2023-02-13T08:27:41;-1.60;99.90
10911;DHT22;5508;49.150;11.030;2023-02-13T08:30:41;-1.60;99.90
10911;DHT22;5508;49.150;11.030;2023-02-13T08:33:42;-1.70;99.90
10911;DHT22;5508;49.150;11.030;2023-02-13T08:36:43;-1.70;99.90
10911;DHT22;5508;49.150;11.030;2023-02-13T08:39:43;-1.60;99.90
10911;DHT22;5508;49.150;11.030;2023-02-13T08:42:44;-1.60;99.90
10911;DHT22;5508;49.150;11.030;2023-02-13T08:45:44;-1.50;99.90
10911;DHT22;5508;49.150;11.030;2023-02-13T08:48:45;-1.40;99.90
10911;DHT22;5508;49.150;11.030;2023-02-13T08:51:46;-1.30;99.90
10911;DHT22;5508;49.150;11.030;2023-02-13T08:54:46;-1.20;99.90
10911;DHT22;5508;49.150;11.030;2023-02-13T08:57:47;-0.90;99.90
10911;DHT22;5508;49.150;11.030;2023-02-13T09:00:47;-0.90;99.90
10911;DHT22;5508;49.150;11.030;2023-02-13T09:03:49;-0.90;99.90
10911;DHT22;5508;49.150;11.030;2023-02-13T09:06:49;-0.80;99.90
10911;DHT22;5508;49.150;11.030;2023-02-13T09:09:50;-0.60;99.90
10911;DHT22;5508;49.150;11.030;2023-02-13T09:12:51;-0.40;99.90
10911;DHT22;5508;49.150;11.030;2023-02-13T09:15:52;-0.30;99.90
10911;DHT22;5508;49.150;11.030;2023-02-13T09:18:53;-0.30;99.90
10911;DHT22;5508;49.150;11.030;2023-02-13T09:21:53;-0.20;99.90
10911;DHT22;5508;49.150;11.030;2023-02-13T09:24:54;-0.30;99.90
10911;DHT22;5508;49.150;11.030;2023-02-13T09:27:54;-0.10;99.90
10911;DHT22;5508;49.150;11.030;2023-02-13T09:30:55;0.10;99.90
10911;DHT22;5508;49.150;11.030;2023-02-13T09:33:55;0.20;99.90
10911;DHT22;5508;49.150;11.030;2023-02-13T09:36:56;0.30;99.90
10911;DHT22;5508;49.150;11.030;2023-02-13T09:39:57;0.40;99.90
10911;DHT22;5508;49.150;11.030;2023-02-13T09:43:12;0.50;99.90
10911;DHT22;5508;49.150;11.030;2023-02-13T09:49:19;0.40;99.90
10911;DHT22;5508;49.150;11.030;2023-02-13T09:52:23;0.80;99.90
10911;DHT22;5508;49.150;11.030;2023-02-13T09:55:26;1.00;99.90
10911;DHT22;5508;49.150;11.030;2023-02-13T09:58:42;1.10;99.90
10911;DHT22;5508;49.150;11.030;2023-02-13T10:01:47;1.30;99.90
10911;DHT22;5508;49.150;11.030;2023-02-13T10:04:55;1.50;99.90
10911;DHT22;5508;49.150;11.030;2023-02-13T10:14:51;1.50;99.90
10911;DHT22;5508;49.150;11.030;2023-02-13T10:18:00;1.70;99.90
10911;DHT22;5508;49.150;11.030;2023-02-13T10:21:03;1.90;99.90
10911;DHT22;5508;49.150;11.030;2023-02-13T10:24:27;2.00;99.90
10911;DHT22;5508;49.150;11.030;2023-02-13T10:27:43;2.30;99.90
10911;DHT22;5508;49.150;11.030;2023-02-13T10:30:51;2.30;99.90
10911;DHT22;5508;49.150;11.030;2023-02-13T10:33:56;2.20;99.90
10911;DHT22;5508;49.150;11.030;2023-02-13T10:37:00;2.10;99.90
10911;DHT22;5508;49.150;11.030;2023-02-13T10:40:00;2.20;99.90
10911;DHT22;5508;49.150;11.030;2023-02-13T10:43:08;2.50;99.90
10911;DHT22;5508;49.150;11.030;2023-02-13T10:46:32;2.70;99.90
10911;DHT22;5508;49.150;11.030;2023-02-13T10:57:04;3.10;99.90
10911;DHT22;5508;49.150;11.030;2023-02-13T10:59:51;3.10;99.90
10911;DHT22;5508;49.150;11.030;2023-02-13T11:02:56;3.20;99.90
10911;DHT22;5508;49.150;11.030;2023-02-13T11:05:58;3.50;99.90
10911;DHT22;5508;49.150;11.030;2023-02-13T11:09:00;3.30;99.90
10911;DHT22;5508;49.150;11.030;2023-02-13T11:12:31;3.50;99.90
10911;DHT22;5508;49.150;11.030;2023-02-13T11:15:32;3.60;99.90
10911;DHT22;5508;49.150;11.030;2023-02-13T11:18:38;3.50;99.90
10911;DHT22;5508;49.150;11.030;2023-02-13T11:21:41;3.60;99.90
10911;DHT22;5508;49.150;11.030;2023-02-13T11:24:52;3.90;99.90
10911;DHT22;5508;49.150;11.030;2023-02-13T11:28:07;4.30;99.90
10911;DHT22;5508;49.150;11.030;2023-02-13T11:31:15;4.60;99.90
10911;DHT22;5508;49.150;11.030;2023-02-13T11:37:27;5.10;99.90
10911;DHT22;5508;49.150;11.030;2023-02-13T11:40:29;5.20;97.50
10911;DHT22;5508;49.150;11.030;2023-02-13T11:43:34;5.40;98.30
10911;DHT22;5508;49.150;11.030;2023-02-13T11:46:46;5.60;97.60
10911;DHT22;5508;49.150;11.030;2023-02-13T11:49:47;5.80;94.20
10911;DHT22;5508;49.150;11.030;2023-02-13T11:52:57;6.00;93.90
10911;DHT22;5508;49.150;11.030;2023-02-13T11:56:14;6.30;92.50
10911;DHT22;5508;49.150;11.030;2023-02-13T11:59:15;6.70;91.50
10911;DHT22;5508;49.150;11.030;2023-02-13T12:02:59;6.90;88.70
10911;DHT22;5508;49.150;11.030;2023-02-13T12:05:41;7.20;86.90
10911;DHT22;5508;49.150;11.030;2023-02-13T12:08:45;7.30;85.60
10911;DHT22;5508;49.150;11.030;2023-02-13T12:11:49;7.50;77.40
10911;DHT22;5508;49.150;11.030;2023-02-13T12:14:50;7.60;78.60
10911;DHT22;5508;49.150;11.030;2023-02-13T12:18:20;7.70;78.20
10911;DHT22;5508;49.150;11.030;2023-02-13T12:21:47;7.80;76.30
10911;DHT22;5508;49.150;11.030;2023-02-13T12:25:30;8.00;77.00
10911;DHT22;5508;49.150;11.030;2023-02-13T12:45:17;7.60;74.10
10911;DHT22;5508;49.150;11.030;2023-02-13T12:48:51;7.60;75.50
10911;DHT22;5508;49.150;11.030;2023-02-13T12:58:59;7.50;75.10
10911;DHT22;5508;49.150;11.030;2023-02-13T13:02:29;7.50;75.00
10911;DHT22;5508;49.150;11.030;2023-02-13T13:06:01;7.50;74.10
10911;DHT22;5508;49.150;11.030;2023-02-13T13:09:26;7.40;74.30
10911;DHT22;5508;49.150;11.030;2023-02-13T13:26:05;7.40;75.20
10911;DHT22;5508;49.150;11.030;2023-02-13T13:28:58;7.50;74.70
10911;DHT22;5508;49.150;11.030;2023-02-13T13:32:04;7.50;74.60
10911;DHT22;5508;49.150;11.030;2023-02-13T13:35:16;7.50;75.60
10911;DHT22;5508;49.150;11.030;2023-02-13T13:38:40;7.30;75.90
10911;DHT22;5508;49.150;11.030;2023-02-13T13:42:13;7.20;76.30
10911;DHT22;5508;49.150;11.030;2023-02-13T13:51:46;7.20;75.10
10911;DHT22;5508;49.150;11.030;2023-02-13T13:54:48;7.20;76.30
10911;DHT22;5508;49.150;11.030;2023-02-13T13:57:58;7.20;76.20
10911;DHT22;5508;49.150;11.030;2023-02-13T14:01:23;7.20;76.50
10911;DHT22;5508;49.150;11.030;2023-02-13T14:04:37;7.10;76.40
10911;DHT22;5508;49.150;11.030;2023-02-13T14:07:40;7.00;77.60
10911;DHT22;5508;49.150;11.030;2023-02-13T14:13:57;6.70;79.50
10911;DHT22;5508;49.150;11.030;2023-02-13T14:16:59;6.90;79.50
10911;DHT22;5508;49.150;11.030;2023-02-13T14:26:52;7.00;79.30
10911;DHT22;5508;49.150;11.030;2023-02-13T14:29:55;7.00;78.60
10911;DHT22;5508;49.150;11.030;2023-02-13T14:32:56;7.00;78.50
10911;DHT22;5508;49.150;11.030;2023-02-13T14:36:19;7.00;79.50
10911;DHT22;5508;49.150;11.030;2023-02-13T14:39:32;7.10;80.50
10911;DHT22;5508;49.150;11.030;2023-02-13T14:42:35;7.20;78.40
10911;DHT22;5508;49.150;11.030;2023-02-13T14:45:46;7.30;77.30
10911;DHT22;5508;49.150;11.030;2023-02-13T14:49:01;7.30;77.90
10911;DHT22;5508;49.150;11.030;2023-02-13T14:52:05;7.30;78.20
10911;DHT22;5508;49.150;11.030;2023-02-13T14:58:22;7.20;79.40
10911;DHT22;5508;49.150;11.030;2023-02-13T15:01:31;7.10;79.40
10911;DHT22;5508;49.150;11.030;2023-02-13T15:04:54;7.00;78.40
10911;DHT22;5508;49.150;11.030;2023-02-13T15:08:15;7.00;78.70
10911;DHT22;5508;49.150;11.030;2023-02-13T15:14:35;6.80;79.60
10911;DHT22;5508;49.150;11.030;2023-02-13T15:17:37;6.60;80.70
10911;DHT22;5508;49.150;11.030;2023-02-13T15:20:42;6.50;82.40
10911;DHT22;5508;49.150;11.030;2023-02-13T15:23:43;6.30;81.90
10911;DHT22;5508;49.150;11.030;2023-02-13T15:26:58;6.10;82.70
10911;DHT22;5508;49.150;11.030;2023-02-13T15:30:21;6.00;82.90
10911;DHT22;5508;49.150;11.030;2023-02-13T15:33:25;5.80;84.60
10911;DHT22;5508;49.150;11.030;2023-02-13T15:36:34;5.60;85.00
10911;DHT22;5508;49.150;11.030;2023-02-13T15:39:35;5.50;86.60
10911;DHT22;5508;49.150;11.030;2023-02-13T15:42:37;5.50;86.70
10911;DHT22;5508;49.150;11.030;2023-02-13T15:45:42;5.40;88.20
10911;DHT22;5508;49.150;11.030;2023-02-13T15:48:45;5.30;87.60
10911;DHT22;5508;49.150;11.030;2023-02-13T15:51:46;5.10;88.60
10911;DHT22;5508;49.150;11.030;2023-02-13T15:54:49;5.00;89.40
10911;DHT22;5508;49.150;11.030;2023-02-13T15:57:53;5.00;89.10
10911;DHT22;5508;49.150;11.030;2023-02-13T16:00:54;5.00;89.60
10911;DHT22;5508;49.150;11.030;2023-02-13T16:04:07;5.00;89.60
10911;DHT22;5508;49.150;11.030;2023-02-13T16:07:11;4.90;89.70
10911;DHT22;5508;49.150;11.030;2023-02-13T16:13:17;4.40;91.70
10911;DHT22;5508;49.150;11.030;2023-02-13T16:16:18;4.20;93.20
10911;DHT22;5508;49.150;11.030;2023-02-13T16:25:37;3.50;96.90
10911;DHT22;5508;49.150;11.030;2023-02-13T16:28:39;3.40;98.00
10911;DHT22;5508;49.150;11.030;2023-02-13T16:31:40;3.20;97.90
10911;DHT22;5508;49.150;11.030;2023-02-13T16:34:40;3.10;98.50
10911;DHT22;5508;49.150;11.030;2023-02-13T16:37:49;3.00;99.20
10911;DHT22;5508;49.150;11.030;2023-02-13T16:40:51;2.70;99.90
10911;DHT22;5508;49.150;11.030;2023-02-13T16:44:01;2.60;99.90
10911;DHT22;5508;49.150;11.030;2023-02-13T16:47:04;2.40;99.90
10911;DHT22;5508;49.150;11.030;2023-02-13T16:50:15;2.50;99.90
10911;DHT22;5508;49.150;11.030;2023-02-13T16:53:16;2.40;99.90
10911;DHT22;5508;49.150;11.030;2023-02-13T16:56:17;2.40;99.90
10911;DHT22;5508;49.150;11.030;2023-02-13T17:02:32;2.10;99.90
10911;DHT22;5508;49.150;11.030;2023-02-13T17:05:33;2.10;99.90
10911;DHT22;5508;49.150;11.030;2023-02-13T17:08:33;2.00;99.90
10911;DHT22;5508;49.150;11.030;2023-02-13T17:11:34;2.00;99.90
10911;DHT22;5508;49.150;11.030;2023-02-13T17:14:34;1.80;99.90
10911;DHT22;5508;49.150;11.030;2023-02-13T17:17:35;1.70;99.90
10911;DHT22;5508;49.150;11.030;2023-02-13T17:20:36;1.50;99.90
10911;DHT22;5508;49.150;11.030;2023-02-13T17:23:40;1.30;99.90
10911;DHT22;5508;49.150;11.030;2023-02-13T17:26:40;1.10;99.90
10911;DHT22;5508;49.150;11.030;2023-02-13T17:29:41;1.00;99.90
10911;DHT22;5508;49.150;11.030;2023-02-13T17:32:46;0.90;99.90
10911;DHT22;5508;49.150;11.030;2023-02-13T17:35:48;0.80;99.90
10911;DHT22;5508;49.150;11.030;2023-02-13T17:38:48;0.70;99.90
10911;DHT22;5508;49.150;11.030;2023-02-13T17:41:49;0.70;99.90
10911;DHT22;5508;49.150;11.030;2023-02-13T17:44:51;0.60;99.90
10911;DHT22;5508;49.150;11.030;2023-02-13T17:47:52;0.70;99.90
10911;DHT22;5508;49.150;11.030;2023-02-13T17:50:52;0.80;99.90
10911;DHT22;5508;49.150;11.030;2023-02-13T17:53:53;0.70;99.90
10911;DHT22;5508;49.150;11.030;2023-02-13T17:56:55;0.70;99.90
10911;DHT22;5508;49.150;11.030;2023-02-13T17:59:55;0.80;99.90
10911;DHT22;5508;49.150;11.030;2023-02-13T18:02:57;0.80;99.90
10911;DHT22;5508;49.150;11.030;2023-02-13T18:05:58;0.80;99.90
10911;DHT22;5508;49.150;11.030;2023-02-13T18:08:59;0.80;99.90
10911;DHT22;5508;49.150;11.030;2023-02-13T18:11:59;0.90;99.90
10911;DHT22;5508;49.150;11.030;2023-02-13T18:15:00;0.80;99.90
10911;DHT22;5508;49.150;11.030;2023-02-13T18:18:01;0.90;99.90
10911;DHT22;5508;49.150;11.030;2023-02-13T18:21:01;0.90;99.90
10911;DHT22;5508;49.150;11.030;2023-02-13T18:24:02;0.90;99.90
10911;DHT22;5508;49.150;11.030;2023-02-13T18:27:03;1.00;99.90
10911;DHT22;5508;49.150;11.030;2023-02-13T18:30:05;1.00;99.90
10911;DHT22;5508;49.150;11.030;2023-02-13T18:33:06;1.00;99.90
10911;DHT22;5508;49.150;11.030;2023-02-13T18:36:06;1.10;99.90
10911;DHT22;5508;49.150;11.030;2023-02-13T18:39:07;1.10;99.90
10911;DHT22;5508;49.150;11.030;2023-02-13T18:42:08;1.20;99.90
10911;DHT22;5508;49.150;11.030;2023-02-13T18:45:09;1.20;99.90
10911;DHT22;5508;49.150;11.030;2023-02-13T18:48:11;1.20;99.90
10911;DHT22;5508;49.150;11.030;2023-02-13T18:51:12;1.40;99.90
10911;DHT22;5508;49.150;11.030;2023-02-13T18:54:12;1.30;99.90
10911;DHT22;5508;49.150;11.030;2023-02-13T18:57:13;1.40;99.90
10911;DHT22;5508;49.150;11.030;2023-02-13T19:00:14;1.40;99.90
10911;DHT22;5508;49.150;11.030;2023-02-13T19:03:16;1.30;99.90
10911;DHT22;5508;49.150;11.030;2023-02-13T19:06:20;1.40;99.90
10911;DHT22;5508;49.150;11.030;2023-02-13T19:09:21;1.40;99.90
10911;DHT22;5508;49.150;11.030;2023-02-13T19:12:21;1.40;99.90
10911;DHT22;5508;49.150;11.030;2023-02-13T19:15:22;1.40;99.90
10911;DHT22;5508;49.150;11.030;2023-02-13T19:18:22;1.40;99.90
10911;DHT22;5508;49.150;11.030;2023-02-13T19:21:25;1.40;99.90
10911;DHT22;5508;49.150;11.030;2023-02-13T19:24:26;1.50;99.90
10911;DHT22;5508;49.150;11.030;2023-02-13T19:27:27;1.40;99.90
10911;DHT22;5508;49.150;11.030;2023-02-13T19:30:28;1.40;99.90
10911;DHT22;5508;49.150;11.030;2023-02-13T19:33:28;1.40;99.90
10911;DHT22;5508;49.150;11.030;2023-02-13T19:36:29;1.40;99.90
10911;DHT22;5508;49.150;11.030;2023-02-13T19:39:30;1.40;99.90
10911;DHT22;5508;49.150;11.030;2023-02-13T19:42:30;1.40;99.90
10911;DHT22;5508;49.150;11.030;2023-02-13T19:45:31;1.40;99.90
10911;DHT22;5508;49.150;11.030;2023-02-13T19:48:32;1.40;99.90
10911;DHT22;5508;49.150;11.030;2023-02-13T19:51:33;1.40;99.90
10911;DHT22;5508;49.150;11.030;2023-02-13T19:54:34;1.40;99.90
10911;DHT22;5508;49.150;11.030;2023-02-13T19:57:35;1.40;99.90
10911;DHT22;5508;49.150;11.030;2023-02-13T20:00:35;1.40;99.90
10911;DHT22;5508;49.150;11.030;2023-02-13T20:03:36;1.40;99.90
10911;DHT22;5508;49.150;11.030;2023-02-13T20:06:37;1.40;99.90
10911;DHT22;5508;49.150;11.030;2023-02-13T20:09:39;1.40;99.90
10911;DHT22;5508;49.150;11.030;2023-02-13T20:12:40;1.40;99.90
10911;DHT22;5508;49.150;11.030;2023-02-13T20:15:40;1.50;99.90
10911;DHT22;5508;49.150;11.030;2023-02-13T20:18:41;1.50;99.90
10911;DHT22;5508;49.150;11.030;2023-02-13T20:21:42;1.40;99.90
10911;DHT22;5508;49.150;11.030;2023-02-13T20:24:43;1.40;99.90
10911;DHT22;5508;49.150;11.030;2023-02-13T20:27:44;1.40;99.90
10911;DHT22;5508;49.150;11.030;2023-02-13T20:30:45;1.40;99.90
10911;DHT22;5508;49.150;11.030;2023-02-13T20:33:47;1.50;99.90
10911;DHT22;5508;49.150;11.030;2023-02-13T20:36:48;1.40;99.90
10911;DHT22;5508;49.150;11.030;2023-02-13T20:39:48;1.40;99.90
10911;DHT22;5508;49.150;11.030;2023-02-13T20:42:49;1.50;99.90
10911;DHT22;5508;49.150;11.030;2023-02-13T20:45:50;1.50;99.90
10911;DHT22;5508;49.150;11.030;2023-02-13T20:48:50;1.50;99.90
10911;DHT22;5508;49.150;11.030;2023-02-13T20:51:51;1.40;99.90
10911;DHT22;5508;49.150;11.030;2023-02-13T20:54:52;1.40;99.90
10911;DHT22;5508;49.150;11.030;2023-02-13T20:57:52;1.50;99.90
10911;DHT22;5508;49.150;11.030;2023-02-13T21:00:53;1.40;99.90
10911;DHT22;5508;49.150;11.030;2023-02-13T21:03:54;1.50;99.90
10911;DHT22;5508;49.150;11.030;2023-02-13T21:06:55;1.40;99.90
10911;DHT22;5508;49.150;11.030;2023-02-13T21:09:56;1.50;99.90
10911;DHT22;5508;49.150;11.030;2023-02-13T21:12:56;1.50;99.90
10911;DHT22;5508;49.150;11.030;2023-02-13T21:16:12;1.60;99.90
10911;DHT22;5508;49.150;11.030;2023-02-13T21:19:15;1.40;99.90
10911;DHT22;5508;49.150;11.030;2023-02-13T21:22:16;1.40;99.90
10911;DHT22;5508;49.150;11.030;2023-02-13T21:25:17;1.40;99.90
10911;DHT22;5508;49.150;11.030;2023-02-13T21:28:18;1.40;99.90
10911;DHT22;5508;49.150;11.030;2023-02-13T21:31:22;1.40;99.90
10911;DHT22;5508;49.150;11.030;2023-02-13T21:34:24;1.40;99.90
10911;DHT22;5508;49.150;11.030;2023-02-13T21:37:25;1.30;99.90
10911;DHT22;5508;49.150;11.030;2023-02-13T21:40:25;1.30;99.90
10911;DHT22;5508;49.150;11.030;2023-02-13T21:43:26;1.40;99.90
10911;DHT22;5508;49.150;11.030;2023-02-13T21:46:28;1.30;99.90
10911;DHT22;5508;49.150;11.030;2023-02-13T21:49:29;1.30;99.90
10911;DHT22;5508;49.150;11.030;2023-02-13T21:52:30;1.30;99.90